createdAt,value
2022-09-23T00:01:15.249Z,85.90
2022-09-23T00:03:49.161Z,85.72
2022-09-23T00:06:19.715Z,85.89
2022-09-23T00:08:49.683Z,85.07
2022-09-23T00:11:21.554Z,85.31
2022-09-23T00:13:52.480Z,85.50
2022-09-23T00:16:24.234Z,85.59
2022-09-23T00:18:51.936Z,85.69
2022-09-23T00:21:21.366Z,85.99
2022-09-23T00:23:49.244Z,86.06
2022-09-23T00:26:19.118Z,85.68
2022-09-23T00:28:47.442Z,85.22
2022-09-23T00:31:21.658Z,85.14
2022-09-23T00:34:07.424Z,85.87
2022-09-23T00:36:35.842Z,85.22
2022-09-23T00:39:04.696Z,85.17
2022-09-23T00:41:33.272Z,85.95
2022-09-23T00:44:02.392Z,85.78
2022-09-23T00:46:35.576Z,85.81
2022-09-23T00:49:17.819Z,85.62
2022-09-23T00:51:55.278Z,86.45
2022-09-23T00:54:25.973Z,86.25
2022-09-23T00:56:54.612Z,85.54
2022-09-23T00:59:24.469Z,86.53
2022-09-23T01:01:57.299Z,86.34
2022-09-23T01:04:28.006Z,86.27
2022-09-23T01:06:55.548Z,86.75
2022-09-23T01:09:25.318Z,86.10
2022-09-23T01:12:10.222Z,86.02
2022-09-23T01:14:52.925Z,85.83
2022-09-23T01:17:30.010Z,86.37
2022-09-23T01:20:08.702Z,85.91
2022-09-23T01:23:08.126Z,86.37
2022-09-23T01:26:00.424Z,86.76
2022-09-23T01:28:33.828Z,86.70
2022-09-23T01:31:17.782Z,86.34
2022-09-23T01:33:54.319Z,86.55
2022-09-23T01:36:39.567Z,86.79
2022-09-23T01:39:10.739Z,86.01
2022-09-23T01:42:09.699Z,86.37
2022-09-23T01:44:47.284Z,86.22
2022-09-23T01:47:30.948Z,86.17
2022-09-23T01:50:32.823Z,86.15
2022-09-23T01:53:06.849Z,86.28
2022-09-23T01:55:40.397Z,85.97
2022-09-23T01:58:14.375Z,85.95
2022-09-23T02:00:50.238Z,86.54
2022-09-23T02:03:26.917Z,86.55
2022-09-23T02:06:10.358Z,86.42
2022-09-23T02:08:44.685Z,86.15
2022-09-23T02:11:15.395Z,86.44
2022-09-23T02:13:48.990Z,86.36
2022-09-23T02:16:25.608Z,86.34
2022-09-23T02:19:19.628Z,86.50
2022-09-23T02:21:52.506Z,86.76
2022-09-23T02:24:26.054Z,86.30
2022-09-23T02:26:59.254Z,86.45
2022-09-23T02:29:44.202Z,86.23
2022-09-23T02:32:33.414Z,86.10
2022-09-23T02:35:33.318Z,86.22
2022-09-23T02:38:31.356Z,85.59
2022-09-23T02:41:15.476Z,86.35
2022-09-23T02:43:52.005Z,86.37
2022-09-23T02:46:20.539Z,86.16
2022-09-23T02:48:56.909Z,86.62
2022-09-23T02:51:25.871Z,86.42
2022-09-23T02:53:56.379Z,86.22
2022-09-23T02:56:24.441Z,86.65
2022-09-23T02:58:54.470Z,87.11
2022-09-23T03:01:56.572Z,86.78
2022-09-23T03:04:54.948Z,86.18
2022-09-23T03:07:50.486Z,87.16
2022-09-23T03:10:28.700Z,87.26
2022-09-23T03:13:29.956Z,86.56
2022-09-23T03:15:59.706Z,86.51
2022-09-23T03:18:48.126Z,86.56
2022-09-23T03:21:41.681Z,87.46
2022-09-23T03:24:10.883Z,87.58
2022-09-23T03:26:40.918Z,87.08
2022-09-23T03:29:11.314Z,86.72
2022-09-23T03:31:42.481Z,86.71
2022-09-23T03:34:24.435Z,86.63
2022-09-23T03:37:17.796Z,86.72
2022-09-23T03:39:53.524Z,87.09
2022-09-23T03:42:27.613Z,87.40
2022-09-23T03:44:57.383Z,86.99
2022-09-23T03:47:27.201Z,87.88
2022-09-23T03:49:56.845Z,87.35
2022-09-23T03:52:25.610Z,87.84
2022-09-23T03:54:53.628Z,87.95
2022-09-23T03:57:22.372Z,87.00
2022-09-23T03:59:54.337Z,87.34
2022-09-23T04:02:21.989Z,87.06
2022-09-23T04:04:49.627Z,87.30
2022-09-23T04:07:17.832Z,87.57
2022-09-23T04:09:45.355Z,87.53
2022-09-23T04:12:15.107Z,87.43
2022-09-23T04:14:43.016Z,87.68
2022-09-23T04:17:11.412Z,88.17
2022-09-23T04:19:39.229Z,87.74
2022-09-23T04:22:07.783Z,87.29
2022-09-23T04:24:35.599Z,88.20
2022-09-23T04:27:03.551Z,87.96
2022-09-23T04:29:31.127Z,88.16
2022-09-23T04:31:58.776Z,87.64
2022-09-23T04:34:26.509Z,87.56
2022-09-23T04:36:54.093Z,88.25
2022-09-23T04:39:21.667Z,88.23
2022-09-23T04:41:49.255Z,87.43
2022-09-23T04:44:17.462Z,88.14
2022-09-23T04:46:48.217Z,88.25
2022-09-23T04:49:16.518Z,87.61
2022-09-23T04:51:44.020Z,88.18
2022-09-23T04:54:12.802Z,87.47
2022-09-23T04:56:40.952Z,87.81
2022-09-23T04:59:08.795Z,87.96
2022-09-23T05:01:36.898Z,87.53
2022-09-23T05:04:07.380Z,88.05
2022-09-23T05:06:36.112Z,87.92
2022-09-23T05:09:06.556Z,88.28
2022-09-23T05:11:35.032Z,87.64
2022-09-23T05:14:03.155Z,88.11
2022-09-23T05:16:30.934Z,88.42
2022-09-23T05:18:59.499Z,88.04
2022-09-23T05:21:30.295Z,88.77
2022-09-23T05:24:01.198Z,87.69
2022-09-23T05:26:31.388Z,87.97
2022-09-23T05:28:59.355Z,87.82
2022-09-23T05:31:29.050Z,87.67
2022-09-23T05:33:59.003Z,87.79
2022-09-23T05:36:28.460Z,88.02
2022-09-23T05:38:56.811Z,88.38
2022-09-23T05:41:25.900Z,87.65
2022-09-23T05:43:55.060Z,88.09
2022-09-23T05:46:28.571Z,87.71
2022-09-23T05:49:02.199Z,87.41
2022-09-23T05:51:31.923Z,88.04
2022-09-23T05:54:03.275Z,87.80
2022-09-23T05:56:32.084Z,87.69
2022-09-23T05:59:01.895Z,88.12
2022-09-23T06:01:35.423Z,87.47
2022-09-23T06:04:05.988Z,88.39
2022-09-23T06:06:38.657Z,88.12
2022-09-23T06:09:08.298Z,88.34
2022-09-23T06:11:36.585Z,87.58
2022-09-23T06:14:04.411Z,88.22
2022-09-23T06:16:35.073Z,87.62
2022-09-23T06:19:06.332Z,87.33
2022-09-23T06:21:37.162Z,87.90
2022-09-23T06:24:05.153Z,87.60
2022-09-23T06:26:35.139Z,87.62
2022-09-23T06:29:04.732Z,87.44
2022-09-23T06:31:33.126Z,87.15
2022-09-23T06:34:12.157Z,87.07
2022-09-23T06:36:45.772Z,87.29
2022-09-23T06:39:14.909Z,87.24
2022-09-23T06:41:43.784Z,86.94
2022-09-23T06:44:15.227Z,87.54
2022-09-23T06:46:44.084Z,87.11
2022-09-23T06:49:12.265Z,86.81
2022-09-23T06:51:40.351Z,87.07
2022-09-23T06:54:08.200Z,86.44
2022-09-23T06:56:39.050Z,86.51
2022-09-23T06:59:09.802Z,87.49
2022-09-23T07:01:37.997Z,86.88
2022-09-23T07:04:07.635Z,87.24
2022-09-23T07:06:35.868Z,86.59
2022-09-23T07:09:05.361Z,86.33
2022-09-23T07:11:33.166Z,86.23
2022-09-23T07:14:00.649Z,86.92
2022-09-23T07:16:28.452Z,86.86
2022-09-23T07:18:56.051Z,87.14
2022-09-23T07:21:24.308Z,86.48
2022-09-23T07:23:52.114Z,86.45
2022-09-23T07:26:20.657Z,87.19
2022-09-23T07:28:48.466Z,87.39
2022-09-23T07:31:27.109Z,86.77
2022-09-23T07:34:03.740Z,86.79
2022-09-23T07:36:32.882Z,86.89
2022-09-23T07:39:02.318Z,86.71
2022-09-23T07:41:31.753Z,86.82
2022-09-23T07:44:00.649Z,87.23
2022-09-23T07:46:31.185Z,86.53
2022-09-23T07:48:59.187Z,86.60
2022-09-23T07:51:35.497Z,86.66
2022-09-23T07:54:07.460Z,86.69
2022-09-23T07:56:36.076Z,86.86
2022-09-23T07:59:05.086Z,87.57
2022-09-23T08:01:34.006Z,87.52
2022-09-23T08:04:10.558Z,87.02
2022-09-23T08:06:43.227Z,87.13
2022-09-23T08:09:11.873Z,86.01
2022-09-23T08:11:42.153Z,84.23
2022-09-23T08:14:12.757Z,83.38
2022-09-23T08:16:41.661Z,83.07
2022-09-23T08:19:09.452Z,82.47
2022-09-23T08:21:39.163Z,81.17
2022-09-23T08:24:12.924Z,79.25
2022-09-23T08:26:40.522Z,77.51
2022-09-23T08:29:10.199Z,76.00
2022-09-23T08:31:37.686Z,75.23
2022-09-23T08:34:05.356Z,73.91
2022-09-23T08:36:33.056Z,72.86
2022-09-23T08:39:00.661Z,72.28
2022-09-23T08:41:58.187Z,71.23
2022-09-23T08:44:37.881Z,71.99
2022-09-23T08:47:11.381Z,72.41
2022-09-23T08:49:44.532Z,72.41
2022-09-23T08:52:22.671Z,72.44
2022-09-23T08:54:55.133Z,72.12
2022-09-23T08:58:24.571Z,69.58
2022-09-23T09:01:05.762Z,68.88
2022-09-23T09:03:50.618Z,65.97
2022-09-23T09:06:52.320Z,64.40
2022-09-23T09:09:29.815Z,63.56
2022-09-23T09:12:05.008Z,61.84
2022-09-23T09:14:55.429Z,59.29
2022-09-23T09:17:45.872Z,57.99
2022-09-23T09:20:28.744Z,56.13
2022-09-23T09:23:00.599Z,55.64
2022-09-23T09:25:47.006Z,54.54
2022-09-23T09:28:24.660Z,53.69
2022-09-23T09:30:59.726Z,52.44
2022-09-23T09:33:47.267Z,51.82
2022-09-23T09:36:45.148Z,51.36
2022-09-23T09:39:14.525Z,50.40
2022-09-23T09:41:53.888Z,49.85
2022-09-23T09:44:29.230Z,48.92
2022-09-23T09:47:08.757Z,48.26
2022-09-23T09:50:02.013Z,47.97
2022-09-23T09:52:30.004Z,47.52
2022-09-23T09:55:12.478Z,47.07
2022-09-23T09:57:49.769Z,48.20
2022-09-23T10:00:19.312Z,49.61
2022-09-23T10:02:47.498Z,50.25
2022-09-23T10:05:32.117Z,50.30
2022-09-23T10:08:24.872Z,51.00
2022-09-23T10:10:59.447Z,51.85
2022-09-23T10:13:30.176Z,52.15
2022-09-23T10:16:00.854Z,51.85
2022-09-23T10:18:49.307Z,50.17
2022-09-23T10:21:27.592Z,49.31
2022-09-23T10:23:58.689Z,49.76
2022-09-23T10:26:32.553Z,49.86
2022-09-23T10:29:20.185Z,50.04
2022-09-23T10:31:47.799Z,49.86
2022-09-23T10:34:27.494Z,48.08
2022-09-23T10:37:03.448Z,46.68
2022-09-23T10:39:49.212Z,48.26
2022-09-23T10:43:01.389Z,48.02
2022-09-23T10:45:53.112Z,49.53
2022-09-23T10:48:44.746Z,50.47
2022-09-23T10:51:36.368Z,51.85
2022-09-23T10:54:21.775Z,50.35
2022-09-23T10:57:00.380Z,50.36
2022-09-23T10:59:59.768Z,49.53
2022-09-23T11:02:42.570Z,50.51
2022-09-23T11:05:15.289Z,51.90
2022-09-23T11:08:06.808Z,52.14
2022-09-23T11:10:48.625Z,53.28
2022-09-23T11:13:37.316Z,52.77
2022-09-23T11:16:31.113Z,51.16
2022-09-23T11:19:02.194Z,50.10
2022-09-23T11:21:35.616Z,48.36
2022-09-23T11:24:03.291Z,47.80
2022-09-23T11:26:55.786Z,45.84
2022-09-23T11:29:35.565Z,45.12
2022-09-23T11:32:18.851Z,44.87
2022-09-23T11:35:11.184Z,43.76
2022-09-23T11:38:05.103Z,43.72
2022-09-23T11:40:36.451Z,45.28
2022-09-23T11:43:23.598Z,45.13
2022-09-23T11:46:02.041Z,47.12
2022-09-23T11:48:50.832Z,48.27
2022-09-23T11:51:35.022Z,49.30
2022-09-23T11:54:12.400Z,49.33
2022-09-23T11:56:50.384Z,49.94
2022-09-23T11:59:40.651Z,50.11
2022-09-23T12:02:22.916Z,50.48
2022-09-23T12:05:22.343Z,51.37
2022-09-23T12:08:10.159Z,53.18
2022-09-23T12:10:55.378Z,54.69
2022-09-23T12:13:44.299Z,57.44
2022-09-23T12:16:30.457Z,59.75
2022-09-23T12:19:18.914Z,61.00
2022-09-23T12:22:12.649Z,62.45
2022-09-23T12:24:47.970Z,64.08
2022-09-23T12:27:24.489Z,65.16
2022-09-23T12:29:57.207Z,65.73
2022-09-23T12:32:25.322Z,66.27
2022-09-23T12:34:54.506Z,66.77
2022-09-23T12:37:43.365Z,66.78
2022-09-23T12:40:23.027Z,66.56
2022-09-23T12:42:51.281Z,66.51
2022-09-23T12:45:31.457Z,65.23
2022-09-23T12:47:59.693Z,64.39
2022-09-23T12:50:53.383Z,62.07
2022-09-23T12:53:33.426Z,60.55
2022-09-23T12:56:02.793Z,60.23
2022-09-23T12:58:42.250Z,58.56
2022-09-23T13:01:18.605Z,57.18
2022-09-23T13:04:09.755Z,55.29
2022-09-23T13:06:58.793Z,53.31
2022-09-23T13:09:30.843Z,51.67
2022-09-23T13:12:02.077Z,50.60
2022-09-23T13:14:32.817Z,49.65
2022-09-23T13:17:01.214Z,49.53
2022-09-23T13:19:28.703Z,48.34
2022-09-23T13:22:12.415Z,47.40
2022-09-23T13:24:43.117Z,47.20
2022-09-23T13:27:33.193Z,45.81
2022-09-23T13:30:14.383Z,47.84
2022-09-23T13:32:50.127Z,48.65
2022-09-23T13:35:30.569Z,49.84
2022-09-23T13:37:58.267Z,50.43
2022-09-23T13:40:29.232Z,50.63
2022-09-23T13:43:03.289Z,49.42
2022-09-23T13:45:32.239Z,48.97
2022-09-23T13:48:06.269Z,48.00
2022-09-23T13:50:38.465Z,47.83
2022-09-23T13:53:10.645Z,47.48
2022-09-23T13:55:40.058Z,47.16
2022-09-23T13:58:24.079Z,45.81
2022-09-23T14:00:52.070Z,46.03
2022-09-23T14:03:36.215Z,45.56
2022-09-23T14:06:09.269Z,45.79
2022-09-23T14:08:40.635Z,45.93
2022-09-23T14:11:08.289Z,45.44
2022-09-23T14:13:42.141Z,44.25
2022-09-23T14:16:15.020Z,43.50
2022-09-23T14:18:49.895Z,42.97
2022-09-23T14:21:27.335Z,42.58
2022-09-23T14:23:54.921Z,42.86
2022-09-23T14:26:24.540Z,43.34
2022-09-23T14:28:52.938Z,43.50
2022-09-23T14:31:20.595Z,43.72
2022-09-23T14:33:48.167Z,43.61
2022-09-23T14:36:37.525Z,43.73
2022-09-23T14:39:11.157Z,43.60
2022-09-23T14:41:42.926Z,43.90
2022-09-23T14:44:33.333Z,44.58
2022-09-23T14:47:01.037Z,45.46
2022-09-23T14:49:28.715Z,45.94
2022-09-23T14:52:02.918Z,46.35
2022-09-23T14:54:33.667Z,46.12
2022-09-23T14:57:03.060Z,45.78
2022-09-23T14:59:36.263Z,45.55
2022-09-23T15:02:31.274Z,45.70
2022-09-23T15:05:21.588Z,46.17
2022-09-23T15:07:55.694Z,46.75
2022-09-23T15:10:28.247Z,46.36
2022-09-23T15:13:08.616Z,45.79
2022-09-23T15:15:36.677Z,45.71
2022-09-23T15:18:08.186Z,45.86
2022-09-23T15:20:36.179Z,45.39
2022-09-23T15:23:03.868Z,45.81
2022-09-23T15:25:31.394Z,46.06
2022-09-23T15:28:16.825Z,46.97
2022-09-23T15:30:44.666Z,47.58
2022-09-23T15:33:15.065Z,48.07
2022-09-23T15:35:46.843Z,48.61
2022-09-23T15:38:14.744Z,49.19
2022-09-23T15:40:42.316Z,49.52
2022-09-23T15:43:20.483Z,49.99
2022-09-23T15:45:53.570Z,50.51
2022-09-23T15:48:24.492Z,50.49
2022-09-23T15:50:54.407Z,50.79
2022-09-23T15:53:31.594Z,50.82
2022-09-23T15:55:59.145Z,51.42
2022-09-23T15:58:27.716Z,51.69
2022-09-23T16:00:57.242Z,51.97
2022-09-23T16:03:28.696Z,52.07
2022-09-23T16:06:00.251Z,51.81
2022-09-23T16:08:28.828Z,51.54
2022-09-23T16:10:56.470Z,51.52
2022-09-23T16:13:24.640Z,51.60
2022-09-23T16:15:52.186Z,51.55
2022-09-23T16:18:20.241Z,51.65
2022-09-23T16:20:49.541Z,51.89
2022-09-23T16:23:37.609Z,52.13
2022-09-23T16:26:15.397Z,52.38
2022-09-23T16:28:43.942Z,52.70
2022-09-23T16:31:12.019Z,52.92
2022-09-23T16:33:39.957Z,52.98
2022-09-23T16:36:14.689Z,52.97
2022-09-23T16:38:42.440Z,53.57
2022-09-23T16:41:11.372Z,53.78
2022-09-23T16:43:42.475Z,53.99
2022-09-23T16:46:15.625Z,54.44
2022-09-23T16:48:48.278Z,54.82
2022-09-23T16:51:21.177Z,55.20
2022-09-23T16:53:50.675Z,55.52
2022-09-23T16:56:25.663Z,55.94
2022-09-23T16:58:55.496Z,56.39
2022-09-23T17:01:47.209Z,56.52
2022-09-23T17:04:16.755Z,57.19
2022-09-23T17:06:50.313Z,57.33
2022-09-23T17:09:24.738Z,57.89
2022-09-23T17:12:20.485Z,57.56
2022-09-23T17:14:48.189Z,57.83
2022-09-23T17:17:15.693Z,57.55
2022-09-23T17:19:43.213Z,57.43
2022-09-23T17:22:11.525Z,57.40
2022-09-23T17:24:39.107Z,57.29
2022-09-23T17:27:06.631Z,56.85
2022-09-23T17:29:34.224Z,57.09
2022-09-23T17:32:02.064Z,57.07
2022-09-23T17:34:29.962Z,57.02
2022-09-23T17:36:57.452Z,56.77
2022-09-23T17:39:24.973Z,57.31
2022-09-23T17:41:53.007Z,57.26
2022-09-23T17:44:20.603Z,57.26
2022-09-23T17:46:49.282Z,57.76
2022-09-23T17:49:18.200Z,58.20
2022-09-23T17:51:45.736Z,58.11
2022-09-23T17:54:15.094Z,58.59
2022-09-23T17:56:42.771Z,58.52
2022-09-23T17:59:12.717Z,58.56
2022-09-23T18:01:40.362Z,59.04
2022-09-23T18:04:08.085Z,59.17
2022-09-23T18:06:37.203Z,59.45
2022-09-23T18:09:07.193Z,59.52
2022-09-23T18:11:41.030Z,59.71
2022-09-23T18:14:14.509Z,59.80
2022-09-23T18:16:45.672Z,60.42
2022-09-23T18:19:16.169Z,60.54
2022-09-23T18:21:46.032Z,60.59
2022-09-23T18:27:01.878Z,61.56
2022-09-23T18:29:29.689Z,62.04
2022-09-23T18:31:58.877Z,61.94
2022-09-23T18:34:26.583Z,62.09
2022-09-23T18:36:56.154Z,62.63
2022-09-23T18:39:23.767Z,62.50
2022-09-23T18:41:51.294Z,62.82
2022-09-23T18:44:20.012Z,63.21
2022-09-23T18:46:47.511Z,63.28
2022-09-23T18:49:33.249Z,63.46
2022-09-23T18:52:01.089Z,63.69
2022-09-23T18:54:29.157Z,63.77
2022-09-23T18:56:57.730Z,63.88
2022-09-23T18:59:29.606Z,63.62
2022-09-23T19:01:57.689Z,64.36
2022-09-23T19:04:26.763Z,64.33
2022-09-23T19:06:56.686Z,64.40
2022-09-23T19:09:24.749Z,64.38
2022-09-23T19:11:52.888Z,64.58
2022-09-23T19:14:20.707Z,64.66
2022-09-23T19:16:51.811Z,64.48
2022-09-23T19:19:19.524Z,64.84
2022-09-23T19:21:47.106Z,64.59
2022-09-23T19:24:19.844Z,64.79
2022-09-23T19:26:48.529Z,65.28
2022-09-23T19:29:19.687Z,64.93
2022-09-23T19:31:48.501Z,65.39
2022-09-23T19:34:18.186Z,65.85
2022-09-23T19:36:47.333Z,65.69
2022-09-23T19:39:23.393Z,65.77
2022-09-23T19:41:52.632Z,66.04
2022-09-23T19:44:20.346Z,66.41
2022-09-23T19:46:55.032Z,66.31
2022-09-23T19:49:25.446Z,66.25
2022-09-23T19:51:56.039Z,66.38
2022-09-23T19:54:26.618Z,66.80
2022-09-23T19:56:54.217Z,66.65
2022-09-23T19:59:21.720Z,67.06
2022-09-23T20:01:49.634Z,67.26
2022-09-23T20:04:17.455Z,66.50
2022-09-23T20:06:46.161Z,66.73
2022-09-23T20:09:13.926Z,67.14
2022-09-23T20:11:44.218Z,67.08
2022-09-23T20:14:13.071Z,67.20
2022-09-23T20:16:40.668Z,67.34
2022-09-23T20:19:09.908Z,67.57
2022-09-23T20:21:38.085Z,67.69
2022-09-23T20:24:07.061Z,67.65
2022-09-23T20:26:53.236Z,67.58
2022-09-23T20:29:20.813Z,67.85
2022-09-23T20:31:48.341Z,67.97
2022-09-23T20:34:16.255Z,68.43
2022-09-23T20:36:44.279Z,68.39
2022-09-23T20:39:11.756Z,68.38
2022-09-23T20:41:39.514Z,68.57
2022-09-23T20:44:12.445Z,68.70
2022-09-23T20:46:47.816Z,68.83
2022-09-23T20:49:17.248Z,69.01
2022-09-23T20:51:45.186Z,68.94
2022-09-23T20:54:12.708Z,68.98
2022-09-23T20:56:40.264Z,69.49
2022-09-23T20:59:09.486Z,69.53
2022-09-23T21:01:37.173Z,69.65
2022-09-23T21:04:06.059Z,69.50
2022-09-23T21:06:35.474Z,69.77
2022-09-23T21:09:04.160Z,69.73
2022-09-23T21:11:32.232Z,70.08
2022-09-23T21:14:01.264Z,69.60
2022-09-23T21:16:29.596Z,69.91
2022-09-23T21:18:58.038Z,70.39
2022-09-23T21:21:26.054Z,70.59
2022-09-23T21:23:53.542Z,70.74
2022-09-23T21:26:23.616Z,70.55
2022-09-23T21:28:54.102Z,70.69
2022-09-23T21:31:25.597Z,71.27
2022-09-23T21:33:59.182Z,71.52
2022-09-23T21:36:28.474Z,71.18
2022-09-23T21:38:56.245Z,71.67
2022-09-23T21:41:23.991Z,71.49
2022-09-23T21:43:51.520Z,71.42
2022-09-23T21:46:20.796Z,71.33
2022-09-23T21:48:53.597Z,71.97
2022-09-23T21:51:26.697Z,71.96
2022-09-23T21:53:56.937Z,71.93
2022-09-23T21:56:29.695Z,72.39
2022-09-23T21:58:59.906Z,71.72
2022-09-23T22:01:30.941Z,72.63
2022-09-23T22:04:08.603Z,72.50
2022-09-23T22:06:38.356Z,73.15
2022-09-23T22:09:09.091Z,73.33
2022-09-23T22:11:55.834Z,73.13
2022-09-23T22:14:26.062Z,72.84
2022-09-23T22:16:59.209Z,73.44
2022-09-23T22:19:35.173Z,73.73
2022-09-23T22:22:13.537Z,73.25
2022-09-23T22:24:42.418Z,73.26
2022-09-23T22:27:11.681Z,73.52
2022-09-23T22:29:58.194Z,74.52
2022-09-23T22:32:40.859Z,73.74
2022-09-23T22:35:14.107Z,73.90
2022-09-23T22:37:41.706Z,74.67
2022-09-23T22:40:14.302Z,74.65
2022-09-23T22:42:42.926Z,74.73
2022-09-23T22:45:11.516Z,74.73
2022-09-23T22:47:40.760Z,74.55
2022-09-23T22:50:09.400Z,74.91
2022-09-23T22:52:37.971Z,74.79
2022-09-23T22:55:08.178Z,74.83
2022-09-23T22:57:36.777Z,74.88
2022-09-23T23:00:08.545Z,74.41
2022-09-23T23:02:36.865Z,75.17
2022-09-23T23:05:04.629Z,75.51
2022-09-23T23:07:32.246Z,75.76
2022-09-23T23:09:59.720Z,75.33
2022-09-23T23:12:27.278Z,75.10
2022-09-23T23:14:55.623Z,75.94
2022-09-23T23:17:23.196Z,76.18
2022-09-23T23:19:50.928Z,75.84
2022-09-23T23:22:18.518Z,75.92
2022-09-23T23:24:46.011Z,75.88
2022-09-23T23:27:13.505Z,75.87
2022-09-23T23:29:41.014Z,75.99
2022-09-23T23:32:09.847Z,75.61
2022-09-23T23:34:37.936Z,75.38
2022-09-23T23:37:05.762Z,75.65
2022-09-23T23:39:33.873Z,76.06
2022-09-23T23:42:01.497Z,76.16
2022-09-23T23:44:31.190Z,77.21
2022-09-23T23:46:58.873Z,76.38
2022-09-23T23:49:26.402Z,76.27
2022-09-23T23:51:53.962Z,77.33
2022-09-23T23:54:21.550Z,77.40
2022-09-23T23:56:49.241Z,77.51
2022-09-23T23:59:18.463Z,76.71
